Time;durP1;ratioP1;P1;durP2;ratioP2;P2;SDS_P1;SDS_P2;PMS_P1;PMS_P2;Temp;Humidity;BMP_temperature;BMP_pressure;BME280_temperature;BME280_humidity;BME280_pressure;Samples;Min_cycle;Max_cycle;Signal;HPM_P1;HPM_P2
2021/08/19 00:00:13;;;;;;;17.17;10.17;;;17.40;99.90;;;;;;5008187;28;20681;-50
2021/08/19 00:02:40;;;;;;;16.00;10.13;;;17.40;99.90;;;;;;5007679;28;20257;-50
2021/08/19 00:05:08;;;;;;;17.07;9.27;;;17.40;99.90;;;;;;5007594;28;20230;-50
2021/08/19 00:07:34;;;;;;;17.97;9.00;;;17.40;99.90;;;;;;5007875;28;20297;-49
2021/08/19 00:10:03;;;;;;;20.80;9.40;;;17.50;99.90;;;;;;5007784;28;20594;-49
2021/08/19 00:12:30;;;;;;;17.20;10.10;;;17.40;99.90;;;;;;5007789;28;20222;-49
2021/08/19 00:14:57;;;;;;;17.33;10.93;;;17.40;99.90;;;;;;5007607;28;20248;-49
2021/08/19 00:17:23;;;;;;;16.60;9.30;;;17.40;99.90;;;;;;5008107;28;20238;-49
2021/08/19 00:19:50;;;;;;;19.17;10.30;;;17.30;99.90;;;;;;5007453;28;20218;-49
2021/08/19 00:22:17;;;;;;;17.83;10.90;;;17.40;99.90;;;;;;5007545;28;20606;-49
2021/08/19 00:24:44;;;;;;;17.83;10.93;;;17.30;99.90;;;;;;5007382;28;20293;-49
2021/08/19 00:27:10;;;;;;;20.40;10.97;;;17.30;99.90;;;;;;5007352;28;20218;-49
2021/08/19 00:29:37;;;;;;;19.73;11.07;;;17.20;99.90;;;;;;5007618;28;20289;-49
2021/08/19 00:32:05;;;;;;;19.63;11.33;;;17.30;99.90;;;;;;5007457;28;20321;-50
2021/08/19 00:34:32;;;;;;;22.37;11.10;;;17.30;99.90;;;;;;5007067;28;20318;-49
2021/08/19 00:36:59;;;;;;;15.93;11.03;;;17.30;99.90;;;;;;5006330;28;20234;-49
2021/08/19 00:39:25;;;;;;;16.17;10.30;;;17.30;99.90;;;;;;5007584;28;20208;-50
2021/08/19 00:41:52;;;;;;;17.07;10.43;;;17.40;99.90;;;;;;5007643;28;20296;-49
2021/08/19 00:44:20;;;;;;;20.13;11.13;;;17.30;99.90;;;;;;5007679;28;20345;-49
2021/08/19 00:46:47;;;;;;;17.57;10.97;;;17.30;99.90;;;;;;5006996;28;20742;-49
2021/08/19 00:49:14;;;;;;;17.40;11.20;;;17.30;99.90;;;;;;5006482;28;20233;-49
2021/08/19 00:51:44;;;;;;;17.80;10.73;;;17.30;99.90;;;;;;5006642;28;20234;-50
2021/08/19 00:54:14;;;;;;;17.90;10.77;;;17.20;99.90;;;;;;5006495;28;20219;-50
2021/08/19 00:56:41;;;;;;;17.73;10.37;;;17.20;99.90;;;;;;5006917;28;20260;-50
2021/08/19 00:59:09;;;;;;;15.17;9.97;;;17.20;99.90;;;;;;5007145;28;20260;-49
2021/08/19 01:01:37;;;;;;;18.50;10.93;;;17.20;99.90;;;;;;5007020;28;20208;-49
2021/08/19 01:04:05;;;;;;;22.07;10.83;;;17.20;99.90;;;;;;5006380;28;20677;-49
2021/08/19 01:06:36;;;;;;;15.30;10.43;;;17.20;99.90;;;;;;5006722;28;20237;-49
2021/08/19 01:09:08;;;;;;;20.13;11.00;;;17.20;99.90;;;;;;5006765;28;20409;-50
2021/08/19 01:11:38;;;;;;;16.83;10.47;;;17.20;99.90;;;;;;5006952;28;20213;-49
2021/08/19 01:14:06;;;;;;;18.60;11.10;;;17.20;99.90;;;;;;5006320;28;20251;-50
2021/08/19 01:16:35;;;;;;;15.23;10.73;;;17.10;99.90;;;;;;5006439;28;20220;-49
2021/08/19 01:19:02;;;;;;;21.60;10.90;;;17.10;99.90;;;;;;5006261;28;20198;-48
2021/08/19 01:21:29;;;;;;;20.27;10.90;;;17.10;99.90;;;;;;5006851;28;20207;-50
2021/08/19 01:23:56;;;;;;;20.83;10.70;;;17.10;99.90;;;;;;5005802;28;20207;-48
2021/08/19 01:26:25;;;;;;;19.47;10.67;;;17.20;99.90;;;;;;5006611;28;20201;-48
2021/08/19 01:28:55;;;;;;;19.57;11.40;;;17.10;99.90;;;;;;5006477;28;20658;-48
2021/08/19 01:31:26;;;;;;;20.37;11.53;;;17.20;99.90;;;;;;5006896;28;20246;-49
2021/08/19 01:33:53;;;;;;;19.93;11.03;;;17.10;99.90;;;;;;5005947;28;20242;-48
2021/08/19 01:36:20;;;;;;;19.43;11.10;;;17.10;99.90;;;;;;5006440;28;20862;-47
2021/08/19 01:38:50;;;;;;;21.20;11.40;;;17.20;99.90;;;;;;5006018;28;20239;-48
2021/08/19 01:41:17;;;;;;;19.00;11.27;;;17.10;99.90;;;;;;5006343;28;20643;-48
2021/08/19 01:43:47;;;;;;;19.03;11.17;;;17.20;99.90;;;;;;5012867;28;20202;-48
2021/08/19 01:46:14;;;;;;;19.20;10.00;;;17.20;99.90;;;;;;5006857;28;20248;-48
2021/08/19 01:48:42;;;;;;;16.53;10.50;;;17.20;99.90;;;;;;5006896;28;20301;-48
2021/08/19 01:51:20;;;;;;;23.07;11.47;;;17.30;99.90;;;;;;5006100;28;20556;-48
2021/08/19 01:53:48;;;;;;;21.53;11.63;;;17.30;99.90;;;;;;5006212;28;20297;-48
2021/08/19 01:56:19;;;;;;;16.53;10.63;;;17.20;99.90;;;;;;5006543;28;20254;-49
2021/08/19 01:58:47;;;;;;;20.93;11.57;;;17.20;99.90;;;;;;5006151;28;20316;-49
2021/08/19 02:01:19;;;;;;;25.27;12.57;;;17.20;99.90;;;;;;5006542;28;20263;-48
2021/08/19 02:03:47;;;;;;;19.53;11.30;;;17.10;99.90;;;;;;5005720;28;20210;-48
2021/08/19 02:06:14;;;;;;;19.00;11.27;;;17.20;99.90;;;;;;5008421;28;20208;-49
2021/08/19 02:08:41;;;;;;;19.57;12.33;;;17.10;99.90;;;;;;5009867;28;20269;-49
2021/08/19 02:11:08;;;;;;;20.33;10.93;;;17.10;99.90;;;;;;5010147;28;20229;-48
2021/08/19 02:13:34;;;;;;;22.27;12.23;;;17.10;99.90;;;;;;5010202;28;20240;-48
2021/08/19 02:16:02;;;;;;;17.43;11.30;;;17.10;99.90;;;;;;5009818;28;20301;-49
2021/08/19 02:18:29;;;;;;;20.80;11.63;;;17.20;99.90;;;;;;5010072;28;20209;-49
2021/08/19 02:20:56;;;;;;;17.07;11.47;;;17.20;99.90;;;;;;5009841;28;20235;-49
2021/08/19 02:23:22;;;;;;;21.50;11.30;;;17.20;99.90;;;;;;5009749;28;20256;-49
2021/08/19 02:25:49;;;;;;;20.27;12.70;;;17.10;99.90;;;;;;5009034;28;20751;-49
2021/08/19 02:28:16;;;;;;;21.53;11.83;;;17.10;99.90;;;;;;5009884;28;20288;-49
2021/08/19 02:30:43;;;;;;;21.27;11.67;;;17.20;99.90;;;;;;5009682;28;20209;-48
2021/08/19 02:33:10;;;;;;;26.83;13.27;;;17.20;99.90;;;;;;5009764;28;20234;-49
2021/08/19 02:35:36;;;;;;;25.70;12.90;;;17.20;99.90;;;;;;5009332;28;20651;-48
2021/08/19 02:38:07;;;;;;;20.33;11.93;;;17.10;99.90;;;;;;5024549;28;20289;-48
2021/08/19 02:40:36;;;;;;;22.27;12.47;;;17.20;99.90;;;;;;5009018;28;20204;-50
2021/08/19 02:43:04;;;;;;;22.77;13.00;;;17.10;99.90;;;;;;5009033;28;20240;-48
2021/08/19 02:45:31;;;;;;;20.83;11.40;;;17.10;99.90;;;;;;5008852;28;20211;-48
2021/08/19 02:47:58;;;;;;;21.67;13.10;;;17.20;99.90;;;;;;5009271;28;20752;-48
2021/08/19 02:50:25;;;;;;;25.23;11.57;;;17.20;99.90;;;;;;5008411;28;20331;-49
2021/08/19 02:52:52;;;;;;;19.40;12.60;;;17.20;99.90;;;;;;5007679;28;20212;-48
2021/08/19 02:55:19;;;;;;;21.67;12.23;;;17.20;99.90;;;;;;5008953;28;20229;-48
2021/08/19 02:57:46;;;;;;;23.27;12.70;;;17.10;99.90;;;;;;5009169;28;20207;-48
2021/08/19 03:00:13;;;;;;;21.73;12.23;;;17.10;99.90;;;;;;5009013;28;20326;-48
2021/08/19 03:02:41;;;;;;;25.83;13.63;;;17.10;99.90;;;;;;5008981;28;20202;-48
2021/08/19 03:05:08;;;;;;;26.87;12.80;;;17.20;99.90;;;;;;5008686;28;20291;-48
2021/08/19 03:07:35;;;;;;;24.47;13.10;;;17.10;99.90;;;;;;5008845;28;20204;-49
2021/08/19 03:10:03;;;;;;;21.77;12.53;;;17.10;99.90;;;;;;5015037;28;20667;-48
2021/08/19 03:12:30;;;;;;;24.00;13.57;;;17.00;99.90;;;;;;5008865;28;20238;-48
2021/08/19 03:14:57;;;;;;;23.10;12.93;;;17.00;99.90;;;;;;5008843;28;20331;-48
2021/08/19 03:17:24;;;;;;;20.97;12.27;;;17.00;99.90;;;;;;5008247;28;20235;-48
2021/08/19 03:19:50;;;;;;;25.50;13.33;;;17.00;99.90;;;;;;5008472;28;20213;-48
2021/08/19 03:22:17;;;;;;;21.97;12.67;;;17.00;99.90;;;;;;5008588;28;20238;-48
2021/08/19 03:24:44;;;;;;;19.57;12.70;;;17.00;99.90;;;;;;5008177;28;20705;-48
2021/08/19 03:27:13;;;;;;;23.83;13.30;;;17.00;99.90;;;;;;5007877;28;20203;-48
2021/08/19 03:29:39;;;;;;;19.23;12.27;;;17.10;99.90;;;;;;5008084;28;20284;-48
2021/08/19 03:32:07;;;;;;;19.60;12.00;;;17.00;99.90;;;;;;5008224;28;20290;-48
2021/08/19 03:34:34;;;;;;;20.80;12.50;;;17.00;99.90;;;;;;5007928;28;20202;-48
2021/08/19 03:37:03;;;;;;;19.47;12.70;;;17.10;99.90;;;;;;5008269;28;20216;-48
2021/08/19 03:39:30;;;;;;;18.83;12.87;;;17.00;99.90;;;;;;5008076;28;20214;-48
2021/08/19 03:41:57;;;;;;;19.30;11.90;;;17.00;99.90;;;;;;5007705;28;20206;-49
2021/08/19 03:44:24;;;;;;;20.43;12.13;;;17.00;99.90;;;;;;5007288;28;20763;-48
2021/08/19 03:46:52;;;;;;;25.07;13.03;;;17.00;99.90;;;;;;5008295;28;21007;-49
2021/08/19 03:49:19;;;;;;;23.20;12.37;;;17.00;99.90;;;;;;5008143;28;20683;-48
2021/08/19 03:51:46;;;;;;;22.70;13.33;;;17.00;99.90;;;;;;5007717;28;20747;-48
2021/08/19 03:54:13;;;;;;;23.10;12.97;;;17.00;99.90;;;;;;5007959;28;20266;-48
2021/08/19 03:56:40;;;;;;;25.70;13.57;;;16.90;99.90;;;;;;5013904;28;20735;-48
2021/08/19 03:59:08;;;;;;;21.30;11.80;;;16.90;99.90;;;;;;5007238;28;20243;-48
2021/08/19 04:01:36;;;;;;;22.30;11.77;;;16.90;99.90;;;;;;5008165;28;20234;-48
2021/08/19 04:04:03;;;;;;;18.23;12.23;;;16.90;99.90;;;;;;5007140;28;20213;-49
2021/08/19 04:06:30;;;;;;;23.60;13.43;;;17.00;99.90;;;;;;5005955;28;20238;-48
2021/08/19 04:08:57;;;;;;;24.67;13.97;;;17.00;99.90;;;;;;5007675;28;20285;-48
2021/08/19 04:11:25;;;;;;;26.20;13.00;;;16.90;99.90;;;;;;5007940;28;20327;-48
2021/08/19 04:13:52;;;;;;;22.10;12.87;;;17.00;99.90;;;;;;5007371;28;20242;-48
2021/08/19 04:16:19;;;;;;;20.27;13.33;;;17.00;99.90;;;;;;5007834;28;20606;-49
2021/08/19 04:18:46;;;;;;;23.00;12.43;;;17.00;99.90;;;;;;5007055;28;20361;-48
2021/08/19 04:21:13;;;;;;;19.93;12.73;;;17.00;99.90;;;;;;5007493;28;20239;-49
2021/08/19 04:23:44;;;;;;;25.80;12.83;;;17.00;99.90;;;;;;5007497;28;20684;-48
2021/08/19 04:26:11;;;;;;;22.20;12.70;;;17.00;99.90;;;;;;5007564;28;20786;-49
2021/08/19 04:28:39;;;;;;;23.97;13.10;;;16.90;99.90;;;;;;5022166;28;20293;-49
2021/08/19 04:31:06;;;;;;;19.00;12.37;;;16.90;99.90;;;;;;5007184;28;20678;-48
2021/08/19 04:33:33;;;;;;;23.20;11.97;;;17.00;99.90;;;;;;5007696;28;20301;-48
2021/08/19 04:36:00;;;;;;;24.30;11.83;;;16.90;99.90;;;;;;5006697;28;20770;-48
2021/08/19 04:38:27;;;;;;;20.70;12.53;;;16.90;99.90;;;;;;5007777;28;20238;-49
2021/08/19 04:40:53;;;;;;;18.87;12.43;;;17.00;99.90;;;;;;5006992;28;20232;-49
2021/08/19 04:43:21;;;;;;;24.57;13.43;;;16.90;99.90;;;;;;5007545;28;20611;-48
2021/08/19 04:45:48;;;;;;;16.07;11.80;;;16.90;99.90;;;;;;5007488;28;20529;-49
2021/08/19 04:48:15;;;;;;;24.37;12.80;;;17.00;99.90;;;;;;5007103;28;20307;-48
2021/08/19 04:50:42;;;;;;;24.20;12.20;;;17.00;99.90;;;;;;5007489;28;20388;-48
2021/08/19 04:53:09;;;;;;;26.20;12.43;;;17.00;99.90;;;;;;5011041;28;20223;-49
2021/08/19 04:55:36;;;;;;;25.70;13.00;;;17.00;99.90;;;;;;5013352;28;20613;-49
2021/08/19 04:58:03;;;;;;;24.03;11.90;;;17.00;99.90;;;;;;5009885;28;20669;-51
2021/08/19 05:00:30;;;;;;;21.50;11.63;;;17.00;99.90;;;;;;5007736;28;20283;-50
2021/08/19 05:02:57;;;;;;;22.00;11.97;;;17.00;99.90;;;;;;5007304;28;20197;-50
2021/08/19 05:05:25;;;;;;;24.07;13.37;;;16.90;99.90;;;;;;5006563;28;20594;-50
2021/08/19 05:07:52;;;;;;;25.57;12.07;;;17.00;99.90;;;;;;5006932;28;20292;-49
2021/08/19 05:10:19;;;;;;;24.23;12.00;;;17.00;99.90;;;;;;5007460;28;20303;-49
2021/08/19 05:12:46;;;;;;;21.50;11.63;;;17.00;99.90;;;;;;5006781;28;20753;-49
2021/08/19 05:15:13;;;;;;;19.23;11.40;;;17.00;99.90;;;;;;5007232;28;20262;-49
2021/08/19 05:17:39;;;;;;;17.23;12.03;;;17.10;99.90;;;;;;5006532;28;20237;-49
2021/08/19 05:20:07;;;;;;;21.37;12.83;;;17.00;99.90;;;;;;5006283;28;20313;-49
2021/08/19 05:22:34;;;;;;;24.33;12.00;;;17.00;99.90;;;;;;5006737;28;20237;-49
2021/08/19 05:25:01;;;;;;;23.80;11.40;;;17.10;99.90;;;;;;5006888;28;20240;-49
2021/08/19 05:27:28;;;;;;;18.17;11.63;;;17.10;99.90;;;;;;5006617;28;20242;-50
2021/08/19 05:29:54;;;;;;;19.13;11.97;;;17.10;99.90;;;;;;5006867;28;20725;-50
2021/08/19 05:32:21;;;;;;;23.00;11.30;;;17.20;99.90;;;;;;5007067;28;20325;-49
2021/08/19 05:34:48;;;;;;;19.53;11.63;;;17.10;99.90;;;;;;5013091;28;20239;-50
2021/08/19 05:37:15;;;;;;;16.93;11.50;;;17.10;99.90;;;;;;5006893;28;20305;-49
2021/08/19 05:39:42;;;;;;;19.10;10.90;;;17.20;99.90;;;;;;5006184;28;20285;-49
2021/08/19 05:42:09;;;;;;;24.37;11.93;;;17.20;99.90;;;;;;5010107;28;20216;-49
2021/08/19 05:44:36;;;;;;;17.80;11.97;;;17.10;99.90;;;;;;5009770;28;20329;-50
2021/08/19 05:47:06;;;;;;;16.40;11.43;;;17.10;99.90;;;;;;5010736;28;20718;-49
2021/08/19 05:49:35;;;;;;;19.53;11.73;;;17.10;99.90;;;;;;5010226;28;20468;-50
2021/08/19 05:52:02;;;;;;;21.47;12.33;;;17.10;99.90;;;;;;5009909;28;20330;-49
2021/08/19 05:54:29;;;;;;;23.10;11.87;;;17.10;99.90;;;;;;5010166;28;20301;-49
2021/08/19 05:56:56;;;;;;;20.87;11.27;;;17.10;99.90;;;;;;5009885;28;20761;-49
2021/08/19 05:59:23;;;;;;;22.03;11.37;;;17.20;99.90;;;;;;5010547;28;20794;-50
2021/08/19 06:01:49;;;;;;;21.20;11.30;;;17.10;99.90;;;;;;5006598;28;20229;-49
2021/08/19 06:04:17;;;;;;;21.30;11.90;;;17.20;99.90;;;;;;5010402;28;20213;-50
2021/08/19 06:06:45;;;;;;;18.87;11.97;;;17.20;99.90;;;;;;5009939;28;20289;-49
2021/08/19 06:09:13;;;;;;;22.07;12.50;;;17.10;99.90;;;;;;5010418;28;20207;-49
2021/08/19 06:11:40;;;;;;;18.87;13.03;;;17.20;99.90;;;;;;5010470;28;20253;-49
2021/08/19 06:14:07;;;;;;;26.07;11.63;;;17.20;99.90;;;;;;5009221;28;20212;-49
2021/08/19 06:16:33;;;;;;;24.03;11.67;;;17.30;99.90;;;;;;5010139;28;20260;-50
2021/08/19 06:19:02;;;;;;;21.27;11.07;;;17.20;99.90;;;;;;5008962;28;20198;-49
2021/08/19 06:21:29;;;;;;;17.67;11.57;;;17.20;99.90;;;;;;5010324;28;20305;-51
2021/08/19 06:23:56;;;;;;;21.80;11.40;;;17.20;99.90;;;;;;5009798;28;20245;-48
2021/08/19 06:26:22;;;;;;;19.53;11.93;;;17.20;99.90;;;;;;5009558;28;20211;-50
2021/08/19 06:28:49;;;;;;;23.13;11.57;;;17.20;99.90;;;;;;5009653;28;20214;-48
2021/08/19 06:31:16;;;;;;;20.60;11.80;;;17.20;99.90;;;;;;5009963;28;20465;-48
2021/08/19 06:33:44;;;;;;;22.13;12.43;;;17.20;99.90;;;;;;5009245;28;20368;-48
2021/08/19 06:36:12;;;;;;;18.07;10.53;;;17.20;99.90;;;;;;5007866;28;20277;-51
2021/08/19 06:38:38;;;;;;;18.63;11.03;;;17.20;99.90;;;;;;5009575;28;20283;-50
2021/08/19 06:41:05;;;;;;;17.60;10.67;;;17.20;99.90;;;;;;5009649;28;20296;-48
2021/08/19 06:43:32;;;;;;;15.67;11.07;;;17.20;99.90;;;;;;5010407;28;20345;-50
2021/08/19 06:45:59;;;;;;;18.33;10.63;;;17.20;99.90;;;;;;5009594;28;20299;-50
2021/08/19 06:48:26;;;;;;;18.23;10.27;;;17.20;99.90;;;;;;5009781;28;20398;-48
2021/08/19 06:50:52;;;;;;;21.47;10.57;;;17.20;99.90;;;;;;5007906;28;20237;-48
2021/08/19 06:53:19;;;;;;;16.33;10.17;;;17.20;99.90;;;;;;5009419;28;20260;-48
2021/08/19 06:55:46;;;;;;;14.63;9.60;;;17.20;99.90;;;;;;5009370;28;20237;-48
2021/08/19 06:58:13;;;;;;;18.23;10.97;;;17.20;99.90;;;;;;5009555;28;20234;-50
2021/08/19 07:00:40;;;;;;;21.43;9.93;;;17.30;99.90;;;;;;5009410;28;20265;-48
2021/08/19 07:03:07;;;;;;;19.17;10.47;;;17.20;99.90;;;;;;5009313;28;20201;-48
2021/08/19 07:05:34;;;;;;;25.17;11.27;;;17.30;99.90;;;;;;5008459;28;20202;-48
2021/08/19 07:08:01;;;;;;;18.50;10.60;;;17.20;99.90;;;;;;5009220;28;20629;-50
2021/08/19 07:10:27;;;;;;;17.23;10.30;;;17.20;99.90;;;;;;5009425;28;20710;-47
2021/08/19 07:12:54;;;;;;;26.67;12.27;;;17.20;99.90;;;;;;5009345;28;20631;-48
2021/08/19 07:15:22;;;;;;;24.33;11.03;;;17.40;99.90;;;;;;5009648;28;20240;-48
2021/08/19 07:17:48;;;;;;;22.10;10.87;;;17.30;99.90;;;;;;5008784;28;20225;-48
2021/08/19 07:20:15;;;;;;;18.83;10.33;;;17.20;99.90;;;;;;5008538;28;20309;-49
2021/08/19 07:22:45;;;;;;;16.50;10.37;;;17.20;99.90;;;;;;5008877;28;20219;-48
2021/08/19 07:25:13;;;;;;;12.63;9.83;;;17.20;99.90;;;;;;5009248;28;20452;-48
2021/08/19 07:27:41;;;;;;;18.40;9.93;;;17.20;99.90;;;;;;5008810;28;20241;-47
2021/08/19 07:30:10;;;;;;;18.10;10.27;;;17.10;99.90;;;;;;5009073;28;20232;-51
2021/08/19 07:32:36;;;;;;;16.37;9.70;;;17.20;99.90;;;;;;5008492;28;20276;-48
2021/08/19 07:35:04;;;;;;;16.27;9.67;;;17.20;99.90;;;;;;5008750;28;20238;-48
2021/08/19 07:37:31;;;;;;;16.20;10.50;;;17.20;99.90;;;;;;5008773;28;21082;-49
2021/08/19 07:39:58;;;;;;;14.57;9.60;;;17.30;99.90;;;;;;5008246;28;20229;-49
2021/08/19 07:42:25;;;;;;;18.73;10.30;;;17.20;99.90;;;;;;5008418;28;20738;-49
2021/08/19 07:44:52;;;;;;;16.47;10.20;;;17.30;99.90;;;;;;5007603;28;20242;-49
2021/08/19 07:47:21;;;;;;;18.67;10.57;;;17.30;99.90;;;;;;5008646;28;20292;-49
2021/08/19 07:49:48;;;;;;;15.33;10.83;;;17.30;99.90;;;;;;5007758;28;20670;-49
2021/08/19 07:52:15;;;;;;;18.40;9.97;;;17.30;99.90;;;;;;5008757;28;20694;-49
2021/08/19 07:54:42;;;;;;;18.47;10.47;;;17.30;99.90;;;;;;5007668;28;20315;-49
2021/08/19 07:57:09;;;;;;;15.10;10.80;;;17.30;99.90;;;;;;5007773;28;20228;-49
2021/08/19 07:59:36;;;;;;;15.20;9.77;;;17.30;99.90;;;;;;5006225;28;20348;-49
2021/08/19 08:02:19;;;;;;;21.07;8.97;;;17.30;99.90;;;;;;5007518;28;20196;-49
2021/08/19 08:04:47;;;;;;;16.17;8.93;;;17.30;99.90;;;;;;5006472;28;20201;-49
2021/08/19 08:07:14;;;;;;;12.77;9.00;;;17.30;99.90;;;;;;5007764;28;20697;-49
2021/08/19 08:09:40;;;;;;;13.73;9.70;;;17.30;99.90;;;;;;5007816;28;20205;-48
2021/08/19 08:12:07;;;;;;;14.27;9.10;;;17.30;99.90;;;;;;5007796;28;20695;-49
2021/08/19 08:14:34;;;;;;;15.87;8.83;;;17.20;99.90;;;;;;5007852;28;20241;-49
2021/08/19 08:17:01;;;;;;;12.20;8.07;;;17.30;99.90;;;;;;5007913;28;20260;-48
2021/08/19 08:19:28;;;;;;;14.97;8.93;;;17.20;99.90;;;;;;5007352;28;20608;-48
2021/08/19 08:21:55;;;;;;;13.53;7.67;;;17.30;99.90;;;;;;5006958;28;20276;-48
2021/08/19 08:24:21;;;;;;;12.60;7.73;;;17.30;99.90;;;;;;5007782;28;20768;-49
2021/08/19 08:26:48;;;;;;;15.07;8.17;;;17.30;99.90;;;;;;5007494;28;20727;-48
2021/08/19 08:29:15;;;;;;;15.10;7.67;;;17.30;99.90;;;;;;5007588;28;20248;-48
2021/08/19 08:31:42;;;;;;;11.90;7.00;;;17.40;99.90;;;;;;5007435;28;20314;-48
2021/08/19 08:34:08;;;;;;;10.37;7.37;;;17.40;99.90;;;;;;5013094;28;20623;-49
2021/08/19 08:36:35;;;;;;;15.47;8.10;;;17.40;99.90;;;;;;5007191;28;20265;-48
2021/08/19 08:39:04;;;;;;;11.57;7.17;;;17.30;99.90;;;;;;5007427;28;20754;-48
2021/08/19 08:41:37;;;;;;;11.30;7.67;;;17.30;99.90;;;;;;5007428;28;20302;-49
2021/08/19 08:44:04;;;;;;;9.00;7.33;;;17.30;99.90;;;;;;5006427;28;20195;-48
2021/08/19 08:46:33;;;;;;;11.53;8.37;;;17.30;99.90;;;;;;5007011;28;20238;-48
2021/08/19 08:49:01;;;;;;;12.67;7.57;;;17.40;99.90;;;;;;5007019;28;20212;-48
2021/08/19 08:51:31;;;;;;;15.60;8.70;;;17.40;99.90;;;;;;5006894;28;20241;-49
2021/08/19 08:53:57;;;;;;;13.57;8.23;;;17.40;99.90;;;;;;5006918;28;20663;-49
2021/08/19 08:56:25;;;;;;;15.73;8.53;;;17.40;99.90;;;;;;5006978;28;22579;-48
2021/08/19 08:58:52;;;;;;;13.80;9.00;;;17.40;99.90;;;;;;5006906;28;20493;-49
2021/08/19 09:01:19;;;;;;;16.30;8.87;;;17.40;99.90;;;;;;5005463;28;20234;-49
2021/08/19 09:03:47;;;;;;;13.17;9.33;;;17.40;99.90;;;;;;5006924;28;20224;-50
2021/08/19 09:06:17;;;;;;;13.17;9.00;;;17.30;99.90;;;;;;5006676;28;20740;-49
2021/08/19 09:08:51;;;;;;;13.00;8.73;;;17.30;99.90;;;;;;5006768;28;20288;-49
2021/08/19 09:11:19;;;;;;;13.00;8.77;;;17.30;99.90;;;;;;5006707;28;20209;-50
2021/08/19 09:13:46;;;;;;;13.47;9.47;;;17.10;99.90;;;;;;5006877;28;20564;-50
2021/08/19 09:16:18;;;;;;;12.10;9.23;;;17.10;99.90;;;;;;5006676;28;20242;-49
2021/08/19 09:18:45;;;;;;;13.97;9.73;;;17.20;99.90;;;;;;5006490;28;20350;-49
2021/08/19 09:21:22;;;;;;;14.93;9.90;;;17.10;99.90;;;;;;5006993;28;20214;-49
2021/08/19 09:24:21;;;;;;;15.13;9.57;;;17.00;99.90;;;;;;5006904;28;20364;-50
2021/08/19 09:26:50;;;;;;;12.83;9.57;;;17.10;99.90;;;;;;5006969;28;20241;-49
2021/08/19 09:29:22;;;;;;;15.37;10.20;;;17.10;99.90;;;;;;5007062;28;20316;-49
2021/08/19 09:31:52;;;;;;;18.30;9.80;;;17.10;99.90;;;;;;5006631;28;20571;-49
2021/08/19 09:34:19;;;;;;;16.20;10.90;;;17.00;99.90;;;;;;5006397;28;20292;-50
2021/08/19 09:36:46;;;;;;;13.20;10.17;;;17.10;99.90;;;;;;5006681;28;20222;-49
2021/08/19 09:39:17;;;;;;;13.90;10.23;;;17.00;99.90;;;;;;5006637;28;20203;-50
2021/08/19 09:41:52;;;;;;;16.43;10.77;;;16.90;99.90;;;;;;5006947;28;20743;-49
2021/08/19 09:44:27;;;;;;;16.73;10.33;;;16.90;99.90;;;;;;5006099;28;20256;-49
2021/08/19 09:46:54;;;;;;;15.87;10.57;;;16.90;99.90;;;;;;5006533;28;20279;-49
2021/08/19 09:49:21;;;;;;;15.97;9.83;;;16.80;99.90;;;;;;5013660;28;20219;-49
2021/08/19 09:52:08;;;;;;;13.63;10.03;;;16.80;99.90;;;;;;5007099;28;20343;-49
2021/08/19 09:54:40;;;;;;;18.63;10.87;;;16.90;99.90;;;;;;5006278;28;20202;-49
2021/08/19 09:57:08;;;;;;;14.50;10.17;;;16.80;99.90;;;;;;5006467;28;20644;-49
2021/08/19 09:59:38;;;;;;;15.27;10.80;;;16.80;99.90;;;;;;5005195;28;20245;-50
2021/08/19 10:02:07;;;;;;;13.50;11.10;;;16.80;99.90;;;;;;5006225;28;20296;-49
2021/08/19 10:04:35;;;;;;;15.43;10.50;;;16.80;99.90;;;;;;5005341;28;20210;-48
2021/08/19 10:07:03;;;;;;;17.03;10.83;;;16.80;99.90;;;;;;5006051;28;20237;-50
2021/08/19 10:09:30;;;;;;;16.73;10.37;;;16.80;99.90;;;;;;5006122;28;20240;-50
2021/08/19 10:11:58;;;;;;;16.00;10.13;;;16.80;99.90;;;;;;5006930;28;20311;-50
2021/08/19 10:14:28;;;;;;;15.70;9.40;;;16.80;99.90;;;;;;5006299;28;20205;-48
2021/08/19 10:16:55;;;;;;;17.57;9.53;;;16.90;99.90;;;;;;5006113;28;20686;-49
2021/08/19 10:19:34;;;;;;;16.87;10.70;;;16.90;99.90;;;;;;5005493;28;20225;-49
2021/08/19 10:22:06;;;;;;;14.80;10.17;;;16.90;99.90;;;;;;5005981;28;20290;-49
2021/08/19 10:24:38;;;;;;;13.00;9.10;;;17.00;99.90;;;;;;5006102;28;20290;-48
2021/08/19 10:27:07;;;;;;;15.67;9.43;;;17.10;99.90;;;;;;5015733;28;20608;-49
2021/08/19 10:29:46;;;;;;;11.80;9.17;;;17.10;99.90;;;;;;5009958;28;20303;-49
2021/08/19 10:32:23;;;;;;;16.27;9.60;;;17.10;99.90;;;;;;5009636;28;20244;-49
2021/08/19 10:35:08;;;;;;;13.47;8.60;;;17.00;99.90;;;;;;5009198;28;20217;-49
2021/08/19 10:37:44;;;;;;;13.90;9.50;;;17.00;99.90;;;;;;5009914;28;20367;-49
2021/08/19 10:40:36;;;;;;;14.97;8.97;;;17.00;99.90;;;;;;5009551;28;20197;-48
2021/08/19 10:43:28;;;;;;;10.43;8.87;;;17.10;99.90;;;;;;5004287;28;20245;-48
2021/08/19 10:46:09;;;;;;;14.67;9.47;;;17.20;99.90;;;;;;5009446;28;20289;-49
2021/08/19 10:48:50;;;;;;;11.90;8.90;;;17.30;99.90;;;;;;5009604;28;20658;-49
2021/08/19 10:51:17;;;;;;;12.33;8.40;;;17.40;99.90;;;;;;5009015;28;20245;-48
2021/08/19 10:53:44;;;;;;;11.90;8.17;;;17.40;99.90;;;;;;5008121;28;20317;-48
2021/08/19 10:56:12;;;;;;;11.47;7.47;;;17.50;99.90;;;;;;5009312;28;20291;-48
2021/08/19 10:58:42;;;;;;;9.93;7.80;;;17.50;99.90;;;;;;5009384;28;20356;-49
2021/08/19 11:01:16;;;;;;;9.87;8.23;;;17.60;99.90;;;;;;5009358;28;20240;-49
2021/08/19 11:03:52;;;;;;;11.00;7.23;;;17.60;99.90;;;;;;5008793;28;20209;-49
2021/08/19 11:06:23;;;;;;;11.17;7.63;;;17.70;99.90;;;;;;5008709;28;20237;-49
2021/08/19 11:08:55;;;;;;;10.60;7.67;;;17.80;99.90;;;;;;5009198;28;20317;-49
2021/08/19 11:11:36;;;;;;;11.27;6.90;;;17.90;99.90;;;;;;5008905;28;20617;-49
2021/08/19 11:14:17;;;;;;;12.03;7.07;;;17.90;99.90;;;;;;5009494;28;20211;-49
2021/08/19 11:16:54;;;;;;;10.80;6.97;;;17.80;99.90;;;;;;5008862;28;20294;-49
2021/08/19 11:19:22;;;;;;;7.83;6.60;;;17.90;99.90;;;;;;5008073;28;20218;-48
2021/08/19 11:21:52;;;;;;;11.27;7.00;;;17.80;99.90;;;;;;5008460;28;20275;-49
2021/08/19 11:24:19;;;;;;;11.07;7.07;;;17.90;99.90;;;;;;5008894;28;20202;-49
2021/08/19 11:27:01;;;;;;;9.57;6.40;;;18.00;99.90;;;;;;5008638;28;20565;-48
2021/08/19 11:29:30;;;;;;;9.53;6.53;;;17.90;99.90;;;;;;5008350;28;20201;-49
2021/08/19 11:32:01;;;;;;;8.47;6.10;;;18.00;99.90;;;;;;5008770;28;20940;-49
2021/08/19 11:34:27;;;;;;;8.53;6.57;;;18.10;99.90;;;;;;5008679;28;20267;-50
2021/08/19 11:36:54;;;;;;;10.93;6.53;;;18.20;99.90;;;;;;5007938;28;20297;-50
2021/08/19 11:39:27;;;;;;;10.87;6.50;;;18.20;99.90;;;;;;5007254;28;20264;-50
2021/08/19 11:42:01;;;;;;;8.83;5.40;;;18.20;99.90;;;;;;5008186;28;20203;-50
2021/08/19 11:44:28;;;;;;;7.73;5.77;;;18.20;99.90;;;;;;5007936;28;20559;-49
2021/08/19 11:47:03;;;;;;;6.67;5.43;;;18.20;99.90;;;;;;5008575;28;20294;-49
2021/08/19 11:49:31;;;;;;;6.60;4.87;;;18.20;99.90;;;;;;5007397;28;20342;-48
2021/08/19 11:52:07;;;;;;;9.20;5.93;;;18.30;99.90;;;;;;5007534;28;20379;-49
2021/08/19 11:54:39;;;;;;;8.27;5.53;;;18.40;99.90;;;;;;5007458;28;20231;-49
2021/08/19 11:57:06;;;;;;;8.97;5.53;;;18.50;99.90;;;;;;5008090;28;20203;-49
2021/08/19 11:59:33;;;;;;;8.00;5.57;;;18.60;99.90;;;;;;5007798;28;20285;-49
2021/08/19 12:01:59;;;;;;;9.70;6.00;;;18.50;99.90;;;;;;5008214;28;20245;-49
2021/08/19 12:04:28;;;;;;;9.27;5.30;;;18.50;99.90;;;;;;5007878;28;20215;-49
2021/08/19 12:06:56;;;;;;;7.97;5.83;;;18.50;99.90;;;;;;5007738;28;20210;-48
2021/08/19 12:09:24;;;;;;;7.57;5.50;;;18.60;99.90;;;;;;5007775;28;20308;-49
2021/08/19 12:11:52;;;;;;;9.03;5.37;;;18.80;99.90;;;;;;5007750;28;20240;-49
2021/08/19 12:14:27;;;;;;;8.43;6.03;;;18.70;99.90;;;;;;5008024;28;20644;-49
2021/08/19 12:16:55;;;;;;;9.07;5.27;;;18.80;99.90;;;;;;5007737;28;20311;-49
2021/08/19 12:19:26;;;;;;;8.07;5.33;;;18.90;99.90;;;;;;5005614;28;20940;-49
2021/08/19 12:21:52;;;;;;;8.67;5.27;;;19.00;99.90;;;;;;5007914;28;20626;-49
2021/08/19 12:24:21;;;;;;;6.23;5.03;;;19.10;99.90;;;;;;5007475;28;20308;-49
2021/08/19 12:27:25;;;;;;;7.60;6.03;;;18.90;99.90;;;;;;5007718;28;20625;-48
2021/08/19 12:29:56;;;;;;;9.20;5.37;;;18.80;99.90;;;;;;5007475;28;20203;-49
2021/08/19 12:32:35;;;;;;;9.23;5.87;;;18.70;99.90;;;;;;5007436;28;20267;-49
2021/08/19 12:35:21;;;;;;;10.43;5.70;;;18.80;99.90;;;;;;5006631;28;20261;-48
2021/08/19 12:37:54;;;;;;;8.33;5.93;;;18.80;99.90;;;;;;5006289;28;20696;-49